createdAt,value
2023-05-15T00:01:28.134Z,98261.34
2023-05-15T00:03:54.241Z,98266.94
2023-05-15T00:06:20.383Z,98270.44
2023-05-15T00:08:46.498Z,98272.31
2023-05-15T00:11:12.602Z,98262.38
2023-05-15T00:13:38.698Z,98259.69
2023-05-15T00:16:04.870Z,98251.66
2023-05-15T00:18:31.018Z,98250.03
2023-05-15T00:20:57.173Z,98255.38
2023-05-15T00:23:23.299Z,98248.41
2023-05-15T00:25:49.382Z,98246.53
2023-05-15T00:28:15.491Z,98249.22
2023-05-15T00:30:41.636Z,98244.88
2023-05-15T00:33:07.758Z,98245.72
2023-05-15T00:35:33.852Z,98248.41
2023-05-15T00:37:59.962Z,98248.41
2023-05-15T00:40:26.112Z,98252.09
2023-05-15T00:42:52.216Z,98253.75
2023-05-15T00:45:18.330Z,98257.47
2023-05-15T00:47:44.455Z,98252.09
2023-05-15T00:50:10.583Z,98250.47
2023-05-15T00:52:36.735Z,98244.28
2023-05-15T00:55:02.849Z,98244.28
2023-05-15T00:57:28.936Z,98236.22
2023-05-15T00:59:55.048Z,98243.47
2023-05-15T01:02:21.281Z,98240.78
2023-05-15T01:04:47.433Z,98233.78
2023-05-15T01:07:13.559Z,98228.41
2023-05-15T01:09:39.646Z,98241.84
2023-05-15T01:12:05.748Z,98237.50
2023-05-15T01:14:31.864Z,98234.81
2023-05-15T01:16:57.959Z,98233.78
2023-05-15T01:19:24.133Z,98234.00
2023-05-15T01:21:50.332Z,98236.69
2023-05-15T01:24:16.441Z,98234.00
2023-05-15T01:26:42.553Z,98233.19
2023-05-15T01:29:08.665Z,98236.94
2023-05-15T01:31:34.797Z,98231.56
2023-05-15T01:34:00.913Z,98227.22
2023-05-15T01:36:27.014Z,98226.19
2023-05-15T01:38:53.149Z,98220.00
2023-05-15T01:41:19.268Z,98221.88
2023-05-15T01:43:45.381Z,98220.00
2023-05-15T01:46:11.513Z,98221.03
2023-05-15T01:48:37.645Z,98213.00
2023-05-15T01:51:03.776Z,98221.03
2023-05-15T01:53:29.888Z,98216.75
2023-05-15T01:55:55.993Z,98216.50
2023-05-15T01:58:22.111Z,98226.63
2023-05-15T02:00:48.220Z,98217.56
2023-05-15T02:03:14.373Z,98214.88
2023-05-15T02:05:40.976Z,98215.91
2023-05-15T02:08:07.058Z,98210.53
2023-05-15T02:10:33.157Z,98215.91
2023-05-15T02:12:59.266Z,98211.59
2023-05-15T02:15:25.560Z,98210.78
2023-05-15T02:17:51.967Z,98204.34
2023-05-15T02:20:18.116Z,98201.88
2023-05-15T02:22:44.233Z,98213.69
2023-05-15T02:25:10.349Z,98206.44
2023-05-15T02:27:36.485Z,98209.94
2023-05-15T02:30:02.570Z,98208.31
2023-05-15T02:32:28.695Z,98199.44
2023-05-15T02:34:54.837Z,98203.75
2023-05-15T02:37:20.956Z,98207.50
2023-05-15T02:39:47.127Z,98204.81
2023-05-15T02:42:13.254Z,98211.22
2023-05-15T02:44:39.359Z,98205.84
2023-05-15T02:47:05.442Z,98207.72
2023-05-15T02:49:31.569Z,98203.16
2023-05-15T02:51:57.654Z,98203.16
2023-05-15T02:54:23.744Z,98208.53
2023-05-15T02:56:49.932Z,98196.16
2023-05-15T02:59:16.022Z,98201.53
2023-05-15T03:01:42.213Z,98201.53
2023-05-15T03:04:08.402Z,98190.00
2023-05-15T03:06:34.513Z,98195.34
2023-05-15T03:09:00.618Z,98191.03
2023-05-15T03:11:26.745Z,98197.22
2023-05-15T03:13:52.846Z,98191.88
2023-05-15T03:16:19.052Z,98191.03
2023-05-15T03:18:45.256Z,98187.53
2023-05-15T03:21:11.375Z,98182.16
2023-05-15T03:23:37.983Z,98188.59
2023-05-15T03:26:04.327Z,98187.53
2023-05-15T03:28:30.420Z,98175.16
2023-05-15T03:30:56.534Z,98185.06
2023-05-15T03:33:22.651Z,98185.06
2023-05-15T03:35:48.787Z,98184.25
2023-05-15T03:38:17.229Z,98191.25
2023-05-15T03:40:43.517Z,98188.78
2023-05-15T03:43:09.666Z,98182.38
2023-05-15T03:45:35.773Z,98178.06
2023-05-15T03:48:01.942Z,98181.81
2023-05-15T03:50:28.071Z,98182.63
2023-05-15T03:52:54.171Z,98179.13
2023-05-15T03:55:20.290Z,98175.59
2023-05-15T03:57:46.385Z,98179.13
2023-05-15T04:00:12.487Z,98176.44
2023-05-15T04:02:38.764Z,98179.34
2023-05-15T04:05:04.948Z,98174.78
2023-05-15T04:07:31.087Z,98180.16
2023-05-15T04:09:57.301Z,98187.38
2023-05-15T04:12:23.414Z,98206.16
2023-05-15T04:14:49.528Z,98193.81
2023-05-15T04:17:15.668Z,98194.63
2023-05-15T04:19:43.034Z,98209.06
2023-05-15T04:22:09.296Z,98190.28
2023-05-15T04:24:35.416Z,98201.00
2023-05-15T04:27:01.578Z,98207.22
2023-05-15T04:29:27.749Z,98205.56
2023-05-15T04:31:53.882Z,98206.63
2023-05-15T04:34:19.982Z,98209.31
2023-05-15T04:36:46.072Z,98203.09
2023-05-15T04:39:12.188Z,98211.97
2023-05-15T04:41:38.279Z,98209.31
2023-05-15T04:44:04.389Z,98197.16
2023-05-15T04:46:30.642Z,98213.00
2023-05-15T04:48:56.852Z,98207.88
2023-05-15T04:51:22.973Z,98207.03
2023-05-15T04:53:49.105Z,98207.03
2023-05-15T04:56:15.219Z,98202.75
2023-05-15T04:58:41.316Z,98202.75
2023-05-15T05:01:07.460Z,98202.75
2023-05-15T05:03:33.617Z,98206.47
2023-05-15T05:05:59.727Z,98205.63
2023-05-15T05:08:25.843Z,98205.63
2023-05-15T05:10:51.940Z,98201.13
2023-05-15T05:13:18.064Z,98202.94
2023-05-15T05:15:44.238Z,98199.25
2023-05-15T05:18:10.467Z,98207.50
2023-05-15T05:20:36.587Z,98199.25
2023-05-15T05:23:02.701Z,98206.47
2023-05-15T05:25:28.811Z,98205.63
2023-05-15T05:27:54.914Z,98202.13
2023-05-15T05:30:21.029Z,98212.88
2023-05-15T05:32:47.236Z,98201.31
2023-05-15T05:35:13.415Z,98203.19
2023-05-15T05:37:41.235Z,98201.31
2023-05-15T05:40:07.674Z,98207.72
2023-05-15T05:42:33.754Z,98211.44
2023-05-15T05:44:59.865Z,98212.25
2023-05-15T05:47:26.034Z,98209.59
2023-05-15T05:49:52.178Z,98211.44
2023-05-15T05:52:18.285Z,98209.81
2023-05-15T05:54:44.385Z,98212.25
2023-05-15T05:57:10.513Z,98214.34
2023-05-15T05:59:36.644Z,98206.31
2023-05-15T06:02:02.762Z,98209.81
2023-05-15T06:04:28.987Z,98212.72
2023-05-15T06:06:55.276Z,98218.09
2023-05-15T06:09:21.381Z,98216.22
2023-05-15T06:11:47.477Z,98218.09
2023-05-15T06:14:13.605Z,98217.28
2023-05-15T06:16:39.736Z,98214.34
2023-05-15T06:19:05.906Z,98215.63
2023-05-15T06:21:32.284Z,98221.56
2023-05-15T06:23:58.403Z,98224.50
2023-05-15T06:26:24.511Z,98219.13
2023-05-15T06:28:50.632Z,98214.81
2023-05-15T06:31:16.733Z,98207.56
2023-05-15T06:33:42.859Z,98214.00
2023-05-15T06:36:08.997Z,98215.84
2023-05-15T06:38:35.141Z,98215.03
2023-05-15T06:41:01.254Z,98215.84
2023-05-15T06:43:27.386Z,98213.19
2023-05-15T06:45:53.520Z,98218.53
2023-05-15T06:48:19.733Z,98221.22
2023-05-15T06:50:45.895Z,98223.91
2023-05-15T06:53:14.181Z,98224.94
2023-05-15T06:55:40.679Z,98226.59
2023-05-15T06:58:06.794Z,98231.94
2023-05-15T07:00:32.900Z,98232.16
2023-05-15T07:02:59.064Z,98229.47
2023-05-15T07:05:25.432Z,98229.47
2023-05-15T07:07:51.738Z,98227.59
2023-05-15T07:10:17.835Z,98231.13
2023-05-15T07:12:44.024Z,98232.16
2023-05-15T07:15:10.121Z,98232.16
2023-05-15T07:17:36.269Z,98238.56
2023-05-15T07:20:02.567Z,98228.66
2023-05-15T07:22:28.718Z,98228.88
2023-05-15T07:24:54.836Z,98223.31
2023-05-15T07:27:20.950Z,98219.81
2023-05-15T07:29:47.061Z,98225.16
2023-05-15T07:32:13.155Z,98227.84
2023-05-15T07:34:39.279Z,98222.69
2023-05-15T07:37:05.369Z,98211.97
2023-05-15T07:39:31.492Z,98217.34
2023-05-15T07:41:57.653Z,98217.34
2023-05-15T07:44:23.745Z,98222.69
2023-05-15T07:46:49.836Z,98217.34
2023-05-15T07:49:15.981Z,98214.88
2023-05-15T07:51:42.091Z,98217.53
2023-05-15T07:54:08.198Z,98218.38
2023-05-15T07:56:36.006Z,98223.75
2023-05-15T07:59:02.165Z,98221.06
2023-05-15T08:01:30.592Z,98222.91
2023-05-15T08:03:57.526Z,98226.19
2023-05-15T08:06:23.649Z,98228.88
2023-05-15T08:08:49.731Z,98221.66
2023-05-15T08:11:15.851Z,98228.88
2023-05-15T08:13:41.959Z,98220.03
2023-05-15T08:16:08.160Z,98219.22
2023-05-15T08:18:34.481Z,98217.34
2023-05-15T08:21:01.585Z,98226.44
2023-05-15T08:23:29.008Z,98221.88
2023-05-15T08:25:55.158Z,98218.38
2023-05-15T08:28:21.277Z,98220.03
2023-05-15T08:30:47.360Z,98222.69
2023-05-15T08:33:13.472Z,98217.53
2023-05-15T08:35:39.624Z,98218.38
2023-05-15T08:38:05.760Z,98220.22
2023-05-15T08:40:39.009Z,98223.75
2023-05-15T08:43:06.269Z,98217.53
2023-05-15T08:45:32.370Z,98217.53
2023-05-15T08:47:58.622Z,98217.53
2023-05-15T08:50:24.914Z,98223.75
2023-05-15T08:52:51.020Z,98223.75
2023-05-15T08:55:17.135Z,98225.38
2023-05-15T08:57:43.256Z,98221.88
2023-05-15T09:00:09.487Z,98222.91
2023-05-15T09:02:35.712Z,98220.84
2023-05-15T09:05:01.853Z,98216.53
2023-05-15T09:07:27.956Z,98215.47
2023-05-15T09:09:54.059Z,98220.84
2023-05-15T09:12:20.177Z,98222.69
2023-05-15T09:14:46.308Z,98214.66
2023-05-15T09:17:12.427Z,98209.28
2023-05-15T09:19:38.562Z,98204.75
2023-05-15T09:22:04.783Z,98209.28
2023-05-15T09:24:30.895Z,98213.84
2023-05-15T09:26:56.997Z,98213.84
2023-05-15T09:29:23.121Z,98206.63
2023-05-15T09:31:49.280Z,98211.97
2023-05-15T09:34:15.407Z,98214.44
2023-05-15T09:36:41.528Z,98210.91
2023-05-15T09:39:07.665Z,98211.75
2023-05-15T09:41:33.811Z,98209.09
2023-05-15T09:43:59.945Z,98201.03
2023-05-15T09:46:26.114Z,98194.84
2023-05-15T09:48:52.236Z,98201.03
2023-05-15T09:51:18.379Z,98205.34
2023-05-15T09:53:44.476Z,98207.22
2023-05-15T09:56:10.610Z,98201.03
2023-05-15T09:58:36.723Z,98206.41
2023-05-15T10:01:02.906Z,98210.72
2023-05-15T10:03:29.177Z,98202.66
2023-05-15T10:05:55.356Z,98215.03
2023-05-15T10:08:21.479Z,98208.03
2023-05-15T10:10:47.576Z,98215.03
2023-05-15T10:13:13.704Z,98215.03
2023-05-15T10:15:39.907Z,98203.47
2023-05-15T10:18:06.157Z,98217.47
2023-05-15T10:20:32.387Z,98205.13
2023-05-15T10:22:58.491Z,98197.31
2023-05-15T10:25:24.579Z,98213.19
2023-05-15T10:27:50.704Z,98206.75
2023-05-15T10:30:16.824Z,98209.44
2023-05-15T10:32:42.945Z,98217.47
2023-05-15T10:35:09.108Z,98207.56
2023-05-15T10:37:35.258Z,98212.13
2023-05-15T10:40:01.396Z,98204.88
2023-05-15T10:42:27.527Z,98196.03
2023-05-15T10:44:53.623Z,98198.50
2023-05-15T10:47:19.798Z,98199.53
2023-05-15T10:49:45.939Z,98191.47
2023-05-15T10:52:12.043Z,98186.72
2023-05-15T10:54:38.155Z,98183.22
2023-05-15T10:57:04.301Z,98180.53
2023-05-15T10:59:30.390Z,98177.88
2023-05-15T11:01:56.496Z,98176.00
2023-05-15T11:04:22.721Z,98167.13
2023-05-15T11:06:48.870Z,98173.91
2023-05-15T11:09:15.002Z,98177.66
2023-05-15T11:11:41.110Z,98172.28
2023-05-15T11:14:07.226Z,98167.72
2023-05-15T11:16:33.383Z,98168.75
2023-05-15T11:18:59.622Z,98172.03
2023-05-15T11:21:25.731Z,98172.84
2023-05-15T11:23:51.822Z,98169.16
2023-05-15T11:26:17.987Z,98172.84
2023-05-15T11:28:44.091Z,98164.81
2023-05-15T11:31:10.219Z,98165.41
2023-05-15T11:33:36.517Z,98169.16
2023-05-15T11:36:02.687Z,98159.22
2023-05-15T11:38:28.790Z,98165.41
2023-05-15T11:40:54.940Z,98154.69
2023-05-15T11:43:21.110Z,98153.88
2023-05-15T11:45:47.218Z,98150.16
2023-05-15T11:48:13.438Z,98143.75
2023-05-15T11:50:39.810Z,98147.22
2023-05-15T11:53:05.949Z,98144.56
2023-05-15T11:55:32.073Z,98147.22
2023-05-15T11:57:58.193Z,98135.47
2023-05-15T12:00:24.429Z,98135.47
2023-05-15T12:02:50.742Z,98135.22
2023-05-15T12:05:16.916Z,98134.44
2023-05-15T12:07:43.021Z,98133.59
2023-05-15T12:10:09.131Z,98136.03
2023-05-15T12:12:35.239Z,98133.38
2023-05-15T12:15:01.326Z,98125.31
2023-05-15T12:17:27.460Z,98136.88
2023-05-15T12:19:53.586Z,98131.53
2023-05-15T12:22:19.678Z,98134.22
2023-05-15T12:24:45.810Z,98123.69
2023-05-15T12:27:11.929Z,98128.59
2023-05-15T12:29:38.029Z,98119.75
2023-05-15T12:32:04.266Z,98117.06
2023-05-15T12:34:30.383Z,98111.69
2023-05-15T12:36:56.475Z,98110.88
2023-05-15T12:39:22.587Z,98099.94
2023-05-15T12:41:49.728Z,98104.25
2023-05-15T12:44:15.979Z,98106.13
2023-05-15T12:46:42.300Z,98105.06
2023-05-15T12:49:08.615Z,98117.66
2023-05-15T12:51:34.705Z,98114.16
2023-05-15T12:54:00.805Z,98121.97
2023-05-15T12:56:26.914Z,98110.22
2023-05-15T12:58:53.030Z,98105.66
2023-05-15T13:01:19.197Z,98104.03
2023-05-15T13:03:45.717Z,98102.97
2023-05-15T13:06:11.914Z,98104.84
2023-05-15T13:08:38.034Z,98105.44
2023-05-15T13:11:04.127Z,98099.22
2023-05-15T13:13:30.229Z,98100.88
2023-05-15T13:15:56.396Z,98107.88
2023-05-15T13:18:22.555Z,98095.53
2023-05-15T13:20:48.678Z,98095.53
2023-05-15T13:23:14.833Z,98108.72
2023-05-15T13:25:40.954Z,98100.66
2023-05-15T13:28:07.085Z,98103.09
2023-05-15T13:30:33.230Z,98092.63
2023-05-15T13:32:59.453Z,98094.25
2023-05-15T13:35:25.648Z,98090.75
2023-05-15T13:37:51.776Z,98090.75
2023-05-15T13:40:17.880Z,98086.19
2023-05-15T13:42:43.983Z,98095.88
2023-05-15T13:45:10.106Z,98088.06
2023-05-15T13:47:36.478Z,98093.19
2023-05-15T13:50:02.770Z,98101.22
2023-05-15T13:52:29.057Z,98098.56
2023-05-15T13:54:55.166Z,98097.53
2023-05-15T13:57:21.272Z,98087.81
2023-05-15T13:59:47.412Z,98092.16
2023-05-15T14:02:13.522Z,98090.28
2023-05-15T14:04:39.629Z,98091.09
2023-05-15T14:07:05.745Z,98090.88
2023-05-15T14:09:31.965Z,98090.06
2023-05-15T14:11:58.062Z,98100.78
2023-05-15T14:14:24.190Z,98101.59
2023-05-15T14:16:50.442Z,98093.56
2023-05-15T14:19:16.676Z,98102.41
2023-05-15T14:21:42.888Z,98097.06
2023-05-15T14:24:08.999Z,98098.72
2023-05-15T14:26:35.087Z,98094.16
2023-05-15T14:29:01.209Z,98097.88
2023-05-15T14:31:27.341Z,98104.06
2023-05-15T14:33:53.454Z,98106.50
2023-05-15T14:36:19.691Z,98110.25
2023-05-15T14:38:45.783Z,98103.81
2023-05-15T14:41:11.902Z,98104.88
2023-05-15T14:43:38.104Z,98103.81
2023-05-15T14:46:04.302Z,98101.97
2023-05-15T14:48:30.442Z,98101.16
2023-05-15T14:50:56.630Z,98101.97
2023-05-15T14:53:22.714Z,98100.13
2023-05-15T14:55:48.851Z,98107.09
2023-05-15T14:58:15.170Z,98098.00
2023-05-15T15:00:41.288Z,98102.34
2023-05-15T15:03:07.562Z,98096.97
2023-05-15T15:05:33.726Z,98097.78
2023-05-15T15:07:59.842Z,98094.03
2023-05-15T15:10:26.145Z,98089.72
2023-05-15T15:12:52.336Z,98094.03
2023-05-15T15:15:18.429Z,98088.66
2023-05-15T15:17:44.573Z,98098.59
2023-05-15T15:20:10.870Z,98095.69
2023-05-15T15:22:37.034Z,98096.50
2023-05-15T15:25:03.157Z,98097.56
2023-05-15T15:27:29.276Z,98106.19
2023-05-15T15:29:55.382Z,98115.06
2023-05-15T15:32:21.627Z,98113.19
2023-05-15T15:34:47.752Z,98110.50
2023-05-15T15:37:13.857Z,98107.81
2023-05-15T15:39:39.952Z,98106.78
2023-05-15T15:42:06.134Z,98114.81
2023-05-15T15:44:32.257Z,98119.16
2023-05-15T15:46:58.366Z,98119.16
2023-05-15T15:49:24.469Z,98119.97
2023-05-15T15:51:50.582Z,98124.53
2023-05-15T15:54:16.679Z,98127.78
2023-05-15T15:56:42.816Z,98136.88
2023-05-15T15:59:08.944Z,98133.16
2023-05-15T16:01:35.111Z,98137.47
2023-05-15T16:04:01.295Z,98129.41
2023-05-15T16:06:27.428Z,98133.75
2023-05-15T16:08:53.573Z,98132.09
2023-05-15T16:11:19.711Z,98138.06
2023-05-15T16:13:45.803Z,98133.75
2023-05-15T16:16:12.032Z,98144.50
2023-05-15T16:18:38.236Z,98136.19
2023-05-15T16:21:04.349Z,98139.69
2023-05-15T16:23:30.462Z,98143.44
2023-05-15T16:25:56.582Z,98157.44
2023-05-15T16:28:22.670Z,98152.28
2023-05-15T16:30:50.005Z,98153.09
2023-05-15T16:33:16.372Z,98156.38
2023-05-15T16:35:42.556Z,98158.25
2023-05-15T16:38:08.720Z,98150.41
2023-05-15T16:40:34.934Z,98152.06
2023-05-15T16:43:01.031Z,98152.06
2023-05-15T16:45:27.153Z,98152.06
2023-05-15T16:47:53.343Z,98151.00
2023-05-15T16:50:19.452Z,98159.88
2023-05-15T16:52:45.744Z,98157.19
2023-05-15T16:55:11.960Z,98154.50
2023-05-15T16:57:38.064Z,98150.00
2023-05-15T17:00:04.165Z,98150.78
2023-05-15T17:02:30.417Z,98162.34
2023-05-15T17:04:56.624Z,98150.00
2023-05-15T17:07:22.741Z,98152.66
2023-05-15T17:09:48.862Z,98151.59
2023-05-15T17:12:14.965Z,98159.44
2023-05-15T17:14:41.046Z,98161.06
2023-05-15T17:17:07.183Z,98159.44
2023-05-15T17:19:33.274Z,98166.44
2023-05-15T17:21:59.557Z,98159.44
2023-05-15T17:24:28.791Z,98165.84
2023-05-15T17:27:01.594Z,98171.00
2023-05-15T17:29:27.711Z,98166.69
2023-05-15T17:31:53.851Z,98171.00
2023-05-15T17:34:20.017Z,98176.34
2023-05-15T17:36:46.191Z,98168.31
2023-05-15T17:39:12.295Z,98180.66
2023-05-15T17:41:38.410Z,98191.66
2023-05-15T17:44:04.547Z,98189.78
2023-05-15T17:46:30.676Z,98191.41
2023-05-15T17:48:56.802Z,98186.03
2023-05-15T17:51:23.012Z,98192.25
2023-05-15T17:53:49.117Z,98191.41
2023-05-15T17:56:15.212Z,98198.63
2023-05-15T17:58:41.333Z,98205.66
2023-05-15T18:01:07.440Z,98204.81
2023-05-15T18:03:33.677Z,98208.34
2023-05-15T18:05:59.895Z,98206.47
2023-05-15T18:08:25.979Z,98217.22
2023-05-15T18:10:52.084Z,98213.72
2023-05-15T18:13:18.190Z,98215.56
2023-05-15T18:15:44.320Z,98217.41
2023-05-15T18:18:10.483Z,98223.59
2023-05-15T18:20:36.686Z,98226.53
2023-05-15T18:23:02.801Z,98231.66
2023-05-15T18:25:29.041Z,98232.50
2023-05-15T18:27:55.191Z,98238.06
2023-05-15T18:30:21.283Z,98241.56
2023-05-15T18:32:47.411Z,98246.94
2023-05-15T18:35:13.566Z,98244.50
2023-05-15T18:37:39.680Z,98248.81
2023-05-15T18:40:05.803Z,98250.69
2023-05-15T18:42:31.937Z,98249.63
2023-05-15T18:44:58.051Z,98251.50
2023-05-15T18:47:24.135Z,98253.13
2023-05-15T18:49:50.314Z,98268.41
2023-05-15T18:52:16.678Z,98268.41
2023-05-15T18:54:42.809Z,98269.22
2023-05-15T18:57:08.929Z,98272.97
2023-05-15T18:59:35.035Z,98271.34
2023-05-15T19:02:01.169Z,98278.34
2023-05-15T19:04:27.347Z,98286.16
2023-05-15T19:06:53.461Z,98279.16
2023-05-15T19:09:19.544Z,98279.16
2023-05-15T19:11:45.652Z,98280.19
2023-05-15T19:14:11.737Z,98283.69
2023-05-15T19:16:37.878Z,98289.88
2023-05-15T19:19:04.073Z,98289.06
2023-05-15T19:21:30.188Z,98292.81
2023-05-15T19:23:56.275Z,98289.06
2023-05-15T19:26:22.393Z,98297.94
2023-05-15T19:28:48.487Z,98303.53
2023-05-15T19:31:30.199Z,98305.16
2023-05-15T19:33:57.829Z,98307.84
2023-05-15T19:36:24.168Z,98316.72
2023-05-15T19:38:50.327Z,98316.13
2023-05-15T19:41:16.463Z,98328.25
2023-05-15T19:43:42.568Z,98325.81
2023-05-15T19:46:08.704Z,98329.53
2023-05-15T19:48:34.856Z,98329.53
2023-05-15T19:51:00.961Z,98338.44
2023-05-15T19:53:27.135Z,98338.66
2023-05-15T19:55:53.345Z,98342.97
2023-05-15T19:58:22.135Z,98351.84
2023-05-15T20:00:48.450Z,98349.16
2023-05-15T20:03:14.769Z,98346.47
2023-05-15T20:05:40.948Z,98343.78
2023-05-15T20:08:07.039Z,98335.75
2023-05-15T20:10:33.151Z,98341.13
2023-05-15T20:12:59.316Z,98344.81
2023-05-15T20:15:25.415Z,98342.97
2023-05-15T20:17:51.592Z,98344.81
2023-05-15T20:20:17.713Z,98340.50
2023-05-15T20:22:43.808Z,98346.69
2023-05-15T20:25:09.934Z,98345.88
2023-05-15T20:27:36.031Z,98353.69
2023-05-15T20:30:02.145Z,98356.38
2023-05-15T20:32:28.368Z,98354.75
2023-05-15T20:34:54.513Z,98367.34
2023-05-15T20:37:20.607Z,98360.13
2023-05-15T20:39:46.729Z,98358.44
2023-05-15T20:42:12.830Z,98358.44
2023-05-15T20:44:38.922Z,98356.00
2023-05-15T20:47:05.048Z,98360.31
2023-05-15T20:49:31.164Z,98363.81
2023-05-15T20:51:57.246Z,98364.66
2023-05-15T20:54:23.355Z,98368.38
2023-05-15T20:56:49.449Z,98359.50
2023-05-15T20:59:15.558Z,98368.38
2023-05-15T21:01:41.798Z,98372.94
2023-05-15T21:04:08.091Z,98376.44
2023-05-15T21:06:34.383Z,98369.44
2023-05-15T21:09:00.536Z,98381.19
2023-05-15T21:11:26.661Z,98377.47
2023-05-15T21:13:52.775Z,98380.16
2023-05-15T21:16:18.941Z,98375.63
2023-05-15T21:18:45.068Z,98378.50
2023-05-15T21:21:11.196Z,98374.00
2023-05-15T21:23:37.345Z,98377.47
2023-05-15T21:26:03.469Z,98379.34
2023-05-15T21:28:29.558Z,98377.47
2023-05-15T21:30:55.704Z,98375.00
2023-05-15T21:33:21.846Z,98383.88
2023-05-15T21:35:47.942Z,98380.38
2023-05-15T21:38:14.065Z,98377.47
2023-05-15T21:40:40.166Z,98370.47
2023-05-15T21:43:06.277Z,98372.31
2023-05-15T21:45:32.395Z,98373.13
2023-05-15T21:47:58.614Z,98376.66
2023-05-15T21:50:24.964Z,98373.13
2023-05-15T21:52:51.269Z,98375.81
2023-05-15T21:55:17.368Z,98373.38
2023-05-15T21:57:43.478Z,98368.84
2023-05-15T22:00:09.599Z,98371.50
2023-05-15T22:02:35.777Z,98371.50
2023-05-15T22:05:01.986Z,98368.84
2023-05-15T22:07:28.121Z,98366.16
2023-05-15T22:09:54.228Z,98367.19
2023-05-15T22:12:20.366Z,98377.94
2023-05-15T22:14:57.523Z,98372.56
2023-05-15T22:17:24.772Z,98369.03
2023-05-15T22:19:50.919Z,98374.41
2023-05-15T22:22:17.013Z,98365.53
2023-05-15T22:24:43.119Z,98368.22
2023-05-15T22:27:09.240Z,98371.72
2023-05-15T22:29:35.382Z,98370.91
2023-05-15T22:32:01.569Z,98381.66
2023-05-15T22:34:27.702Z,98376.28
2023-05-15T22:39:24.811Z,98374.66
2023-05-15T22:41:50.930Z,98386.19
2023-05-15T22:44:17.031Z,98386.19
2023-05-15T22:46:43.120Z,98385.38
2023-05-15T22:49:09.345Z,98380.03
2023-05-15T22:51:35.446Z,98373.81
2023-05-15T22:54:01.533Z,98389.09
2023-05-15T22:56:27.652Z,98391.78
2023-05-15T22:58:53.740Z,98392.84
2023-05-15T23:01:19.843Z,98388.28
2023-05-15T23:03:46.086Z,98386.84
2023-05-15T23:06:12.253Z,98393.03
2023-05-15T23:08:38.345Z,98375.91
2023-05-15T23:11:04.518Z,98379.41
2023-05-15T23:13:30.617Z,98385.81
2023-05-15T23:15:56.760Z,98375.06
2023-05-15T23:18:22.910Z,98380.44
2023-05-15T23:20:49.000Z,98385.22
2023-05-15T23:23:15.138Z,98386.84
2023-05-15T23:25:41.257Z,98382.31
2023-05-15T23:28:07.348Z,98386.84
2023-05-15T23:30:33.436Z,98384.19
2023-05-15T23:32:59.628Z,98387.69
2023-05-15T23:35:25.790Z,98382.56
2023-05-15T23:37:51.889Z,98384.19
2023-05-15T23:40:18.020Z,98385.22
2023-05-15T23:42:44.128Z,98383.38
2023-05-15T23:45:10.204Z,98383.56
2023-05-15T23:47:36.359Z,98381.94
2023-05-15T23:50:02.490Z,98386.25
2023-05-15T23:52:28.615Z,98391.63
2023-05-15T23:54:54.739Z,98382.75
2023-05-15T23:57:20.843Z,98388.94
2023-05-15T23:59:46.930Z,98388.94
